Time;durP1;ratioP1;P1;durP2;ratioP2;P2;SDS_P1;SDS_P2;PMS_P1;PMS_P2;Temp;Humidity;BMP_temperature;BMP_pressure;BME280_temperature;BME280_humidity;BME280_pressure;Samples;Min_cycle;Max_cycle;Signal;HPM_P1;HPM_P2
2022/07/24 00:01:55;;;;;;;7.30;6.70;;;23.00;85.30;;;;;;4908462;29;20491;-86
2022/07/24 00:04:25;;;;;;;12.40;8.00;;;22.90;84.90;;;;;;4929351;29;20439;-87
2022/07/24 00:07:06;;;;;;;7.20;6.70;;;22.80;85.60;;;;;;4913521;29;20443;-86
2022/07/24 00:09:46;;;;;;;7.50;6.80;;;22.70;86.40;;;;;;4989074;23;20768;-86
2022/07/24 00:12:19;;;;;;;7.60;7.00;;;22.60;87.40;;;;;;5022868;28;20432;-86
2022/07/24 00:14:56;;;;;;;8.27;7.57;;;22.50;88.50;;;;;;5025224;28;20860;-85
2022/07/24 00:17:34;;;;;;;8.00;7.30;;;22.60;90.10;;;;;;5003819;28;20477;-84
2022/07/24 00:20:10;;;;;;;8.50;7.80;;;22.60;90.10;;;;;;4991492;28;21185;-85
2022/07/24 00:22:40;;;;;;;8.30;7.60;;;22.60;90.30;;;;;;4985864;28;20494;-87
2022/07/24 00:25:09;;;;;;;8.47;7.77;;;22.60;90.40;;;;;;4986544;28;20452;-85
2022/07/24 00:27:38;;;;;;;8.20;7.50;;;22.50;90.30;;;;;;4984738;28;20467;-85
2022/07/24 00:30:14;;;;;;;9.20;8.00;;;22.50;90.20;;;;;;4997817;28;20968;-85
2022/07/24 00:32:41;;;;;;;7.63;7.03;;;22.30;90.80;;;;;;5005735;28;20514;-84
2022/07/24 00:35:14;;;;;;;8.00;7.40;;;22.40;91.00;;;;;;5001385;28;20435;-84
2022/07/24 00:37:42;;;;;;;8.13;7.50;;;22.50;91.00;;;;;;4986842;28;20503;-84
2022/07/24 00:40:15;;;;;;;7.80;7.10;;;22.40;91.00;;;;;;4974812;28;20464;-85
2022/07/24 00:42:49;;;;;;;10.83;8.27;;;22.50;91.10;;;;;;4993608;28;20441;-84
2022/07/24 00:45:23;;;;;;;9.80;8.80;;;22.40;91.30;;;;;;4997877;28;20443;-86
2022/07/24 00:47:56;;;;;;;9.23;8.53;;;22.40;91.50;;;;;;4994128;28;20452;-86
2022/07/24 00:52:57;;;;;;;8.67;7.97;;;22.30;91.30;;;;;;4961833;28;20484;-87
2022/07/24 00:55:28;;;;;;;7.53;6.93;;;22.20;91.40;;;;;;4943899;29;20457;-87
2022/07/24 00:57:56;;;;;;;9.40;8.70;;;22.20;92.00;;;;;;4930272;29;20501;-83
2022/07/24 01:00:24;;;;;;;8.90;8.20;;;22.20;91.80;;;;;;4937481;29;20484;-85
2022/07/24 01:02:54;;;;;;;9.93;8.30;;;22.10;92.30;;;;;;4944685;29;20464;-84
2022/07/24 01:05:21;;;;;;;8.37;7.77;;;22.10;92.30;;;;;;4939501;29;20454;-85
2022/07/24 01:07:53;;;;;;;7.30;6.60;;;21.90;92.80;;;;;;4941058;29;20551;-85
2022/07/24 01:10:26;;;;;;;8.23;7.53;;;21.80;93.10;;;;;;4948221;29;20477;-83
2022/07/24 01:12:54;;;;;;;8.50;7.60;;;21.80;93.30;;;;;;4958847;28;20870;-86
2022/07/24 01:15:30;;;;;;;8.43;7.73;;;22.10;93.40;;;;;;4965413;28;20458;-84
2022/07/24 01:17:57;;;;;;;9.17;8.47;;;22.20;93.00;;;;;;4951746;29;20523;-83
2022/07/24 01:20:38;;;;;;;12.47;9.43;;;22.10;92.90;;;;;;5001979;23;20497;-84
2022/07/24 01:23:05;;;;;;;9.57;8.67;;;22.10;92.80;;;;;;5008109;28;20552;-87
2022/07/24 01:25:32;;;;;;;8.60;7.67;;;22.00;92.90;;;;;;5016922;28;20465;-83
2022/07/24 01:27:58;;;;;;;8.73;8.03;;;21.80;93.30;;;;;;5024322;28;20520;-83
2022/07/24 01:30:25;;;;;;;8.10;7.43;;;21.80;93.70;;;;;;5022822;28;20450;-88
2022/07/24 01:32:52;;;;;;;8.43;7.83;;;21.90;93.60;;;;;;4990002;28;20447;-85
2022/07/24 01:35:21;;;;;;;9.37;8.23;;;22.00;93.20;;;;;;4979845;28;20457;-85
2022/07/24 01:37:49;;;;;;;9.57;8.00;;;21.90;93.40;;;;;;4992138;28;20493;-85
2022/07/24 01:40:16;;;;;;;8.73;7.97;;;21.70;93.60;;;;;;5006525;28;20494;-87
2022/07/24 01:42:43;;;;;;;8.63;7.73;;;21.70;94.00;;;;;;5000452;28;20462;-85
2022/07/24 01:45:10;;;;;;;8.23;7.53;;;21.80;94.00;;;;;;4987391;28;20461;-85
2022/07/24 01:47:37;;;;;;;8.77;8.07;;;21.90;93.90;;;;;;4989834;28;20463;-85
2022/07/24 01:50:05;;;;;;;7.57;6.87;;;21.70;93.70;;;;;;5002092;28;20554;-86
2022/07/24 01:52:32;;;;;;;8.97;8.17;;;21.80;93.60;;;;;;4986597;28;20474;-85
2022/07/24 01:55:05;;;;;;;11.87;8.37;;;21.70;93.70;;;;;;4990901;28;20979;-87
2022/07/24 01:57:33;;;;;;;8.53;7.67;;;21.50;94.20;;;;;;4981883;28;20477;-87
2022/07/24 02:00:01;;;;;;;9.23;8.30;;;21.50;94.40;;;;;;4981138;28;20477;-85
2022/07/24 02:02:28;;;;;;;9.00;8.10;;;21.60;94.30;;;;;;4986868;28;20470;-87
2022/07/24 02:04:55;;;;;;;8.17;7.50;;;21.40;94.60;;;;;;5003555;28;20490;-87
2022/07/24 02:07:22;;;;;;;8.77;8.00;;;21.30;94.80;;;;;;4983494;28;20488;-85
2022/07/24 02:10:08;;;;;;;8.97;8.17;;;21.30;94.90;;;;;;4994878;28;20545;-85
2022/07/24 02:12:35;;;;;;;8.90;8.10;;;21.60;94.70;;;;;;5002966;28;20454;-87
2022/07/24 02:15:26;;;;;;;8.57;7.87;;;21.60;94.60;;;;;;4993547;28;21151;-86
2022/07/24 02:18:26;;;;;;;10.30;9.17;;;21.40;94.60;;;;;;4981498;28;20478;-86
2022/07/24 02:20:56;;;;;;;8.23;7.53;;;21.30;95.10;;;;;;5029899;23;20560;-86
2022/07/24 02:23:46;;;;;;;9.47;8.47;;;21.30;95.20;;;;;;4998922;28;20514;-86
2022/07/24 02:26:25;;;;;;;9.10;8.20;;;21.20;95.20;;;;;;5005609;28;20450;-86
2022/07/24 02:29:09;;;;;;;8.87;8.07;;;21.10;95.40;;;;;;5003350;28;20442;-86
2022/07/24 02:31:51;;;;;;;8.97;8.27;;;21.20;95.00;;;;;;4969506;28;20809;-84
2022/07/24 02:34:17;;;;;;;8.80;8.10;;;21.30;95.10;;;;;;4983726;28;20461;-85
2022/07/24 02:36:47;;;;;;;9.70;8.80;;;21.30;95.00;;;;;;4984407;28;20765;-84
2022/07/24 02:39:21;;;;;;;8.87;8.17;;;21.20;95.30;;;;;;4996005;28;20445;-85
2022/07/24 02:41:59;;;;;;;9.43;8.63;;;21.00;95.50;;;;;;4969691;28;20813;-86
2022/07/24 02:44:26;;;;;;;9.47;8.57;;;20.90;96.10;;;;;;4984007;28;20913;-87
2022/07/24 02:46:53;;;;;;;9.40;8.60;;;20.70;96.30;;;;;;4986409;28;20459;-86
2022/07/24 02:49:25;;;;;;;8.17;7.47;;;20.70;96.50;;;;;;4968802;28;20475;-85
2022/07/24 02:51:55;;;;;;;9.70;8.90;;;20.60;96.80;;;;;;4972281;28;20452;-85
2022/07/24 02:54:42;;;;;;;9.50;8.67;;;20.50;96.90;;;;;;4980788;28;20448;-86
2022/07/24 02:57:15;;;;;;;8.63;7.93;;;20.50;97.20;;;;;;4996355;28;20524;-87
2022/07/24 02:59:49;;;;;;;8.83;8.13;;;20.60;97.00;;;;;;4964137;28;20836;-85
2022/07/24 03:02:42;;;;;;;8.90;8.20;;;20.60;96.90;;;;;;4982627;28;20515;-84
2022/07/24 03:05:10;;;;;;;8.80;8.00;;;20.50;96.70;;;;;;4967459;28;20879;-86
2022/07/24 03:07:37;;;;;;;9.00;8.30;;;20.40;97.10;;;;;;4971232;28;20448;-86
2022/07/24 03:10:05;;;;;;;9.10;8.20;;;20.50;97.00;;;;;;4988120;28;20502;-85
2022/07/24 03:12:35;;;;;;;8.77;8.07;;;20.40;97.10;;;;;;4971824;28;20878;-85
2022/07/24 03:15:03;;;;;;;9.10;8.40;;;20.30;97.50;;;;;;4983825;28;20456;-86
2022/07/24 03:17:30;;;;;;;9.23;8.53;;;20.40;97.70;;;;;;4982203;28;20618;-86
2022/07/24 03:19:56;;;;;;;9.07;8.37;;;20.40;97.60;;;;;;4980970;28;20483;-86
2022/07/24 03:22:23;;;;;;;9.10;8.30;;;20.40;97.60;;;;;;4969387;28;20448;-86
2022/07/24 03:24:52;;;;;;;9.30;8.50;;;20.50;97.60;;;;;;4966616;28;20556;-85
2022/07/24 03:27:19;;;;;;;10.53;9.60;;;20.40;97.70;;;;;;4974038;28;20451;-87
2022/07/24 03:29:47;;;;;;;7.83;7.20;;;20.50;97.70;;;;;;4968136;28;20564;-85
2022/07/24 03:32:19;;;;;;;8.60;7.80;;;20.30;97.70;;;;;;4968232;28;20448;-85
2022/07/24 03:35:07;;;;;;;9.17;8.37;;;20.20;97.90;;;;;;4972845;28;20449;-86
2022/07/24 03:37:34;;;;;;;9.67;8.87;;;20.20;97.90;;;;;;4972211;28;20483;-85
2022/07/24 03:40:03;;;;;;;9.07;8.27;;;20.20;98.00;;;;;;4992715;23;20494;-86
2022/07/24 03:42:30;;;;;;;9.30;8.60;;;20.00;98.30;;;;;;4989375;28;20451;-84
2022/07/24 03:44:57;;;;;;;9.97;9.17;;;20.10;98.80;;;;;;4995288;28;20459;-84
2022/07/24 03:47:24;;;;;;;9.10;8.40;;;20.20;98.50;;;;;;4988259;28;20464;-83
2022/07/24 03:49:52;;;;;;;7.97;7.37;;;20.20;98.30;;;;;;4993273;28;21253;-85
2022/07/24 03:52:19;;;;;;;8.30;7.57;;;20.20;98.20;;;;;;4976666;28;20465;-85
2022/07/24 03:54:49;;;;;;;8.97;8.10;;;19.90;98.40;;;;;;4972667;28;20484;-86
2022/07/24 03:57:17;;;;;;;18.50;10.20;;;20.00;98.80;;;;;;4976191;28;21075;-84
2022/07/24 03:59:44;;;;;;;8.93;8.23;;;20.10;98.90;;;;;;5005420;23;20573;-84
2022/07/24 04:02:11;;;;;;;10.00;9.07;;;20.10;98.90;;;;;;4999735;28;20964;-85
2022/07/24 04:04:38;;;;;;;9.30;8.40;;;20.10;98.60;;;;;;5006050;28;20447;-86
2022/07/24 04:07:06;;;;;;;9.97;8.13;;;20.00;98.70;;;;;;5010391;28;20451;-84
2022/07/24 04:09:33;;;;;;;9.40;8.60;;;20.00;98.80;;;;;;4995307;28;20555;-84
2022/07/24 04:12:01;;;;;;;8.53;7.83;;;20.20;98.90;;;;;;4982302;28;20451;-85
2022/07/24 04:14:30;;;;;;;9.30;8.60;;;20.30;98.90;;;;;;4978360;28;20460;-85
2022/07/24 04:16:58;;;;;;;8.87;8.13;;;20.40;98.50;;;;;;4979086;28;20527;-84
2022/07/24 04:19:25;;;;;;;8.83;8.13;;;20.40;98.20;;;;;;4980152;28;20435;-86
2022/07/24 04:22:14;;;;;;;8.47;7.63;;;20.20;98.30;;;;;;4978378;28;20460;-83
2022/07/24 04:24:41;;;;;;;8.57;7.90;;;20.10;98.40;;;;;;4980755;28;20532;-84
2022/07/24 04:27:15;;;;;;;8.37;7.57;;;20.30;97.90;;;;;;4982579;28;20443;-86
2022/07/24 04:29:44;;;;;;;8.80;7.90;;;20.40;97.60;;;;;;4985760;28;20499;-85
2022/07/24 04:32:16;;;;;;;9.63;8.93;;;20.30;97.70;;;;;;4980409;28;20444;-86
2022/07/24 04:35:06;;;;;;;8.80;8.00;;;20.50;97.90;;;;;;4980542;28;20467;-85
2022/07/24 04:37:45;;;;;;;8.40;7.70;;;20.40;98.00;;;;;;4978674;28;20476;-85
2022/07/24 04:40:13;;;;;;;8.30;7.70;;;20.40;97.70;;;;;;4981002;28;20467;-85
2022/07/24 04:42:43;;;;;;;8.20;7.60;;;20.40;97.60;;;;;;4981149;28;20914;-86
2022/07/24 04:45:10;;;;;;;8.10;7.50;;;20.40;97.80;;;;;;4981811;28;21041;-85
2022/07/24 04:48:00;;;;;;;8.37;7.73;;;20.30;97.90;;;;;;4979893;28;20817;-84
2022/07/24 04:50:27;;;;;;;8.43;7.73;;;20.40;97.40;;;;;;4981725;28;20475;-85
2022/07/24 04:52:54;;;;;;;8.90;8.20;;;20.10;97.80;;;;;;4983857;28;20483;-83
2022/07/24 04:55:21;;;;;;;7.87;7.27;;;20.10;98.00;;;;;;4984021;28;20452;-86
2022/07/24 04:58:03;;;;;;;9.13;8.43;;;20.30;98.00;;;;;;4988452;28;20519;-87
2022/07/24 05:00:30;;;;;;;8.57;7.87;;;20.40;97.50;;;;;;4990633;28;20472;-84
2022/07/24 05:02:57;;;;;;;7.23;6.70;;;20.30;97.60;;;;;;4992856;28;20448;-87
2022/07/24 05:05:25;;;;;;;7.90;7.30;;;20.30;97.30;;;;;;4989327;28;20592;-86
2022/07/24 05:08:00;;;;;;;12.03;8.40;;;20.30;97.10;;;;;;4982799;28;20461;-87
2022/07/24 05:10:27;;;;;;;8.57;7.80;;;20.30;97.00;;;;;;4981543;28;20482;-86
2022/07/24 05:12:59;;;;;;;8.63;7.73;;;20.30;97.10;;;;;;4983586;28;20458;-87
2022/07/24 05:15:29;;;;;;;10.33;7.67;;;20.20;97.20;;;;;;4983016;28;20515;-84
2022/07/24 05:17:56;;;;;;;8.07;7.37;;;20.20;97.20;;;;;;4985379;28;20480;-86
2022/07/24 05:20:28;;;;;;;9.23;8.33;;;20.20;97.40;;;;;;4983683;28;21056;-86
2022/07/24 05:23:10;;;;;;;8.63;7.93;;;20.20;97.30;;;;;;4983203;28;20460;-86
2022/07/24 05:25:42;;;;;;;8.30;7.60;;;20.30;97.40;;;;;;4977366;28;20447;-84
2022/07/24 05:28:59;;;;;;;8.40;7.60;;;20.30;97.60;;;;;;4969583;28;20566;-84
2022/07/24 05:31:54;;;;;;;8.23;7.63;;;20.50;97.10;;;;;;4976665;28;20587;-84
2022/07/24 05:34:22;;;;;;;8.40;7.80;;;20.50;97.10;;;;;;4982120;28;20479;-86
2022/07/24 05:36:52;;;;;;;8.30;7.70;;;20.50;97.00;;;;;;4986249;28;20467;-85
2022/07/24 05:39:45;;;;;;;7.80;7.20;;;20.60;97.10;;;;;;5004743;23;20485;-88
2022/07/24 05:42:18;;;;;;;8.60;7.10;;;20.70;96.40;;;;;;5030133;28;20454;-84
2022/07/24 05:44:50;;;;;;;8.03;7.43;;;20.70;96.40;;;;;;5014951;28;20533;-85
2022/07/24 05:47:26;;;;;;;7.93;7.33;;;20.70;96.50;;;;;;5018663;28;20446;-85
2022/07/24 05:49:53;;;;;;;9.40;8.60;;;20.70;96.20;;;;;;5020178;28;20481;-84
2022/07/24 05:55:51;;;;;;;7.87;7.27;;;20.70;96.20;;;;;;5002721;28;20885;-87
2022/07/24 05:58:19;;;;;;;8.37;7.10;;;20.70;96.10;;;;;;5016761;28;20534;-85
2022/07/24 06:00:52;;;;;;;8.23;7.43;;;20.80;96.10;;;;;;5020794;28;20522;-85
2022/07/24 06:03:24;;;;;;;8.10;7.40;;;20.90;96.00;;;;;;5016056;28;20466;-85
2022/07/24 06:05:56;;;;;;;8.60;7.90;;;20.90;96.00;;;;;;5020183;28;20442;-85
2022/07/24 06:08:26;;;;;;;8.00;7.47;;;20.90;96.20;;;;;;5013164;28;20467;-86
2022/07/24 06:10:57;;;;;;;8.30;7.50;;;21.00;96.20;;;;;;5041281;23;20513;-85
2022/07/24 06:13:29;;;;;;;8.57;7.87;;;21.10;95.80;;;;;;5011800;28;20453;-85
2022/07/24 06:16:02;;;;;;;6.93;6.33;;;21.10;95.70;;;;;;5016067;28;20455;-85
2022/07/24 06:18:53;;;;;;;7.70;7.10;;;21.10;95.90;;;;;;5017431;28;20479;-85
2022/07/24 06:21:26;;;;;;;9.07;8.27;;;21.10;95.70;;;;;;5013629;28;20474;-86
2022/07/24 06:24:04;;;;;;;8.60;7.80;;;21.20;95.60;;;;;;5024564;28;20479;-86
2022/07/24 06:26:34;;;;;;;7.47;6.93;;;21.30;95.60;;;;;;5015215;28;20442;-87
2022/07/24 06:29:29;;;;;;;8.27;7.57;;;21.30;95.70;;;;;;5013988;28;20486;-85
2022/07/24 06:31:56;;;;;;;7.47;6.87;;;21.40;95.80;;;;;;5021394;28;20481;-87
2022/07/24 06:34:24;;;;;;;8.43;7.60;;;21.30;96.00;;;;;;5001019;28;20455;-86
2022/07/24 06:37:09;;;;;;;9.20;8.40;;;21.60;95.50;;;;;;4999758;28;20464;-86
2022/07/24 06:43:03;;;;;;;7.83;7.23;;;21.70;95.10;;;;;;5017819;28;20484;-85
2022/07/24 06:45:32;;;;;;;7.43;6.63;;;21.70;95.30;;;;;;5016017;28;20533;-85
2022/07/24 06:48:00;;;;;;;8.30;7.60;;;21.80;95.10;;;;;;4994409;28;20458;-85
2022/07/24 06:50:41;;;;;;;7.90;7.13;;;22.00;94.80;;;;;;5011025;28;20482;-86
2022/07/24 06:53:33;;;;;;;7.90;7.03;;;22.00;94.60;;;;;;5016051;28;20474;-86
2022/07/24 06:56:35;;;;;;;7.80;7.07;;;22.20;94.40;;;;;;5016655;28;20509;-85
2022/07/24 06:59:05;;;;;;;8.40;7.70;;;22.10;94.80;;;;;;5014917;28;20520;-87
2022/07/24 07:01:38;;;;;;;8.40;7.70;;;22.00;94.40;;;;;;5020189;28;20446;-86
2022/07/24 07:05:11;;;;;;;7.50;6.90;;;22.20;94.30;;;;;;5012380;28;20844;-87
2022/07/24 07:07:43;;;;;;;8.83;8.03;;;22.30;94.30;;;;;;5023306;28;20421;-87
2022/07/24 07:10:23;;;;;;;7.47;6.97;;;22.40;93.90;;;;;;5130906;23;20497;-86
2022/07/24 07:12:50;;;;;;;7.83;7.20;;;22.50;93.80;;;;;;5029262;28;20457;-85
2022/07/24 07:19:40;;;;;;;7.57;6.97;;;23.00;92.50;;;;;;4924860;29;20474;-85
2022/07/24 07:22:19;;;;;;;7.43;6.70;;;23.20;92.40;;;;;;4924946;29;20451;-85
2022/07/24 07:24:46;;;;;;;7.13;6.53;;;23.40;92.20;;;;;;4996671;28;20455;-88
2022/07/24 07:27:14;;;;;;;8.00;7.40;;;23.50;92.00;;;;;;5023774;28;20541;-89
2022/07/24 07:29:47;;;;;;;7.97;7.37;;;23.60;92.10;;;;;;5026175;28;20701;-87
2022/07/24 07:32:39;;;;;;;7.37;6.87;;;23.70;91.70;;;;;;5029742;28;20441;-88
2022/07/24 07:35:11;;;;;;;7.63;6.93;;;23.80;91.40;;;;;;5023699;28;20478;-88
2022/07/24 07:37:58;;;;;;;10.90;7.43;;;23.80;91.40;;;;;;5028765;28;20454;-87
2022/07/24 07:40:42;;;;;;;7.90;7.17;;;23.60;91.50;;;;;;5024077;28;20463;-86
2022/07/24 07:43:38;;;;;;;6.97;6.37;;;23.70;91.50;;;;;;5019067;28;20475;-88
2022/07/24 07:46:10;;;;;;;7.90;7.30;;;24.00;91.60;;;;;;5011999;28;20458;-86
2022/07/24 07:48:53;;;;;;;8.93;6.90;;;24.30;91.10;;;;;;5009989;28;20455;-86
2022/07/24 07:59:23;;;;;;;6.93;6.33;;;24.50;90.20;;;;;;5018199;28;20557;-88
2022/07/24 08:01:52;;;;;;;7.30;6.67;;;25.10;88.80;;;;;;5006881;28;20466;-86
2022/07/24 08:04:20;;;;;;;8.27;7.67;;;25.30;87.20;;;;;;4989088;28;20459;-86
2022/07/24 08:06:49;;;;;;;7.73;6.90;;;25.40;86.40;;;;;;4986739;28;20466;-85
2022/07/24 08:09:29;;;;;;;6.73;6.13;;;25.70;85.80;;;;;;4988846;28;20479;-84
2022/07/24 08:12:06;;;;;;;6.90;6.40;;;25.80;84.60;;;;;;4984035;28;20462;-87
2022/07/24 08:14:44;;;;;;;6.93;6.43;;;26.20;83.50;;;;;;4989823;28;20436;-87
2022/07/24 08:17:11;;;;;;;7.37;6.77;;;26.60;81.50;;;;;;4988445;28;20451;-85
2022/07/24 08:23:39;;;;;;;6.57;6.07;;;27.30;77.40;;;;;;4999566;28;20517;-87
2022/07/24 08:26:30;;;;;;;6.93;6.43;;;27.60;76.40;;;;;;4973341;28;20541;-86
2022/07/24 08:29:00;;;;;;;6.80;6.30;;;28.10;74.10;;;;;;4994185;28;20503;-90
2022/07/24 08:31:39;;;;;;;7.53;6.43;;;28.80;70.60;;;;;;5001383;28;21089;-85
2022/07/24 08:34:09;;;;;;;6.80;6.10;;;29.30;68.40;;;;;;4998762;28;20555;-87
2022/07/24 08:36:45;;;;;;;6.97;6.43;;;29.60;66.00;;;;;;5002023;28;20444;-87
2022/07/24 08:41:56;;;;;;;5.97;5.57;;;30.30;62.50;;;;;;3288287;26;20517;-87
2022/07/24 08:44:26;;;;;;;6.77;6.17;;;31.40;59.30;;;;;;5010098;28;20435;-87
2022/07/24 08:47:10;;;;;;;6.80;6.30;;;32.90;55.70;;;;;;5001540;28;20439;-86
2022/07/24 08:49:44;;;;;;;6.57;5.97;;;33.80;52.80;;;;;;5006422;28;20468;-88
2022/07/24 08:52:50;;;;;;;6.23;5.73;;;34.60;51.10;;;;;;4941542;29;20454;-86
2022/07/24 08:55:46;;;;;;;6.53;5.50;;;35.60;48.90;;;;;;4943985;29;20453;-85
2022/07/24 08:58:16;;;;;;;5.57;5.17;;;35.60;47.10;;;;;;4938873;29;20513;-87
2022/07/24 09:01:22;;;;;;;5.37;4.97;;;35.10;48.20;;;;;;4922049;29;20513;-87
2022/07/24 09:03:49;;;;;;;5.70;5.30;;;35.40;47.70;;;;;;4945540;29;20590;-87
2022/07/24 09:06:19;;;;;;;6.40;5.90;;;36.50;45.80;;;;;;4932032;29;20450;-85
2022/07/24 09:11:36;;;;;;;5.07;4.77;;;35.10;47.00;;;;;;5060325;23;20492;-86
2022/07/24 09:16:49;;;;;;;5.70;5.40;;;36.60;43.40;;;;;;5015248;28;20426;-87
2022/07/24 09:19:32;;;;;;;5.60;4.87;;;37.50;42.10;;;;;;5009147;28;20493;-86
2022/07/24 09:22:04;;;;;;;5.83;5.27;;;37.40;41.30;;;;;;4995209;28;20508;-87
2022/07/24 09:24:31;;;;;;;5.70;5.20;;;37.90;40.50;;;;;;5011168;28;20523;-87
2022/07/24 09:26:59;;;;;;;5.50;5.00;;;38.40;39.30;;;;;;5000104;28;20450;-87
2022/07/24 09:29:27;;;;;;;5.60;5.10;;;37.70;39.60;;;;;;4996558;28;20462;-88
2022/07/24 09:31:59;;;;;;;5.07;4.70;;;37.00;40.60;;;;;;4990371;28;20458;-85
2022/07/24 09:34:28;;;;;;;5.50;5.10;;;38.50;38.40;;;;;;4999984;28;20542;-89
2022/07/24 09:37:05;;;;;;;5.10;4.70;;;37.60;38.70;;;;;;5000024;28;20455;-89
2022/07/24 09:39:37;;;;;;;5.50;5.13;;;36.80;38.80;;;;;;4991928;28;20568;-86
2022/07/24 09:42:07;;;;;;;5.57;5.27;;;37.00;39.60;;;;;;5004400;28;20485;-91
2022/07/24 09:44:34;;;;;;;4.60;4.30;;;37.90;38.20;;;;;;4993271;28;20453;-89
2022/07/24 09:47:10;;;;;;;5.13;4.73;;;36.70;39.10;;;;;;5001308;28;20433;-89
2022/07/24 09:49:39;;;;;;;5.43;5.00;;;37.40;38.80;;;;;;5015566;28;20464;-88
2022/07/24 09:52:05;;;;;;;5.57;5.03;;;37.70;38.00;;;;;;4997519;28;20434;-91
2022/07/24 09:54:37;;;;;;;4.73;4.43;;;36.90;37.80;;;;;;5002943;28;20484;-89
2022/07/24 09:57:20;;;;;;;5.50;5.20;;;36.70;38.60;;;;;;5015504;28;20438;-88
2022/07/24 09:59:52;;;;;;;6.47;5.87;;;37.10;37.80;;;;;;5254924;23;20475;-84
2022/07/24 10:02:28;;;;;;;5.73;5.43;;;37.90;36.90;;;;;;4994765;28;20484;-88
2022/07/24 10:05:00;;;;;;;5.43;4.93;;;37.40;37.30;;;;;;4986208;28;20443;-86
2022/07/24 10:07:38;;;;;;;5.53;5.13;;;37.90;36.30;;;;;;4992813;28;20430;-87
2022/07/24 10:10:28;;;;;;;5.77;5.27;;;36.70;37.50;;;;;;4996941;28;20479;-86
2022/07/24 10:13:34;;;;;;;5.40;4.90;;;38.00;36.80;;;;;;4940295;28;20513;-90
2022/07/24 10:16:13;;;;;;;5.00;4.70;;;37.30;37.40;;;;;;5046082;23;20493;-89
2022/07/24 10:19:03;;;;;;;5.53;5.03;;;37.70;36.90;;;;;;5026576;28;20501;-86
2022/07/24 10:21:37;;;;;;;5.30;5.00;;;37.70;37.00;;;;;;5014958;28;20485;-86
2022/07/24 10:25:02;;;;;;;5.37;4.97;;;37.50;37.40;;;;;;5016194;28;20447;-85
2022/07/24 10:27:31;;;;;;;5.83;5.43;;;38.10;36.60;;;;;;5016780;28;20429;-86
2022/07/24 10:30:04;;;;;;;5.03;4.77;;;37.90;36.50;;;;;;5013071;28;20546;-86
2022/07/24 10:32:34;;;;;;;5.40;4.90;;;38.00;36.90;;;;;;5011015;28;20453;-88
2022/07/24 10:35:19;;;;;;;5.00;4.60;;;37.30;36.60;;;;;;5028061;28;20438;-88
2022/07/24 10:38:16;;;;;;;5.67;5.27;;;36.30;38.20;;;;;;5030641;28;20446;-88
2022/07/24 10:41:18;;;;;;;5.33;5.03;;;37.60;36.70;;;;;;5166607;23;21396;-85
2022/07/24 10:44:17;;;;;;;5.27;4.93;;;36.90;36.70;;;;;;4995032;28;20460;-85
2022/07/24 10:46:58;;;;;;;5.70;5.40;;;36.60;37.20;;;;;;5016425;28;20486;-84
2022/07/24 10:49:47;;;;;;;6.50;5.67;;;36.10;38.00;;;;;;5016832;28;20522;-86
2022/07/24 10:52:37;;;;;;;5.90;5.50;;;35.50;38.50;;;;;;5022301;28;20455;-86
2022/07/24 10:55:33;;;;;;;5.70;5.30;;;37.30;37.00;;;;;;5027592;28;20442;-88
2022/07/24 10:58:10;;;;;;;6.10;5.60;;;37.00;37.10;;;;;;5011756;28;20455;-87
2022/07/24 11:00:42;;;;;;;6.43;4.80;;;36.00;38.30;;;;;;5005253;28;20479;-90
2022/07/24 11:03:26;;;;;;;5.40;5.00;;;35.80;38.80;;;;;;5020093;28;20443;-87
2022/07/24 11:06:08;;;;;;;6.50;5.77;;;36.40;38.00;;;;;;5004769;28;20442;-89
2022/07/24 11:09:03;;;;;;;5.10;4.80;;;36.60;37.80;;;;;;5008915;28;20479;-85
2022/07/24 11:11:42;;;;;;;5.37;4.97;;;37.50;37.10;;;;;;5050551;23;20500;-86
2022/07/24 11:14:30;;;;;;;5.20;4.63;;;37.70;36.60;;;;;;4999261;28;20439;-87
2022/07/24 11:17:36;;;;;;;5.20;4.73;;;37.40;36.80;;;;;;4998910;28;20518;-85
2022/07/24 11:20:07;;;;;;;5.30;5.00;;;37.60;35.30;;;;;;4991836;28;20482;-84
2022/07/24 11:23:18;;;;;;;5.33;5.00;;;37.20;36.20;;;;;;4939304;29;20442;-84
2022/07/24 11:25:49;;;;;;;4.30;4.10;;;37.20;35.80;;;;;;4931529;29;20463;-86
2022/07/24 11:29:22;;;;;;;5.27;4.97;;;36.30;37.00;;;;;;4867723;29;20460;-86
2022/07/24 11:32:01;;;;;;;5.17;4.80;;;36.70;36.90;;;;;;4877595;29;20457;-85
2022/07/24 11:34:37;;;;;;;5.80;5.40;;;36.00;37.80;;;;;;4883050;29;20441;-88
2022/07/24 11:37:11;;;;;;;5.50;5.10;;;35.20;38.40;;;;;;4882595;29;20455;-88
2022/07/24 11:39:42;;;;;;;4.70;4.50;;;34.80;39.20;;;;;;4878033;29;20477;-85
2022/07/24 11:42:16;;;;;;;5.40;4.97;;;34.90;39.40;;;;;;4949119;29;20443;-85
2022/07/24 11:44:48;;;;;;;5.37;4.90;;;36.00;38.80;;;;;;4947075;29;20453;-85
2022/07/24 11:47:35;;;;;;;5.23;4.83;;;36.60;37.20;;;;;;4953629;29;20469;-87
2022/07/24 11:50:05;;;;;;;4.97;4.67;;;35.50;38.40;;;;;;4975493;23;20566;-86
2022/07/24 11:52:35;;;;;;;5.73;5.33;;;35.80;38.70;;;;;;4993519;28;20438;-88
2022/07/24 11:55:17;;;;;;;5.20;4.80;;;36.70;37.80;;;;;;4990385;28;20516;-86
2022/07/24 11:57:50;;;;;;;4.80;4.40;;;36.00;38.10;;;;;;4981453;28;20443;-84
2022/07/24 12:00:34;;;;;;;4.97;4.60;;;35.70;38.30;;;;;;4981543;28;20467;-86
2022/07/24 12:03:01;;;;;;;5.53;5.23;;;36.10;37.50;;;;;;4991831;28;20428;-88
2022/07/24 12:05:31;;;;;;;5.47;4.97;;;36.30;36.70;;;;;;4981884;28;20455;-89
2022/07/24 12:08:01;;;;;;;5.43;5.13;;;35.80;37.90;;;;;;4980706;28;20454;-88
2022/07/24 12:10:29;;;;;;;5.33;5.03;;;35.60;37.60;;;;;;5001642;28;20456;-86
2022/07/24 12:12:57;;;;;;;5.20;4.90;;;35.20;38.10;;;;;;4981643;28;20678;-87
2022/07/24 12:15:29;;;;;;;5.73;4.50;;;35.10;38.60;;;;;;4988665;28;20444;-88
2022/07/24 12:18:00;;;;;;;5.03;4.73;;;35.00;38.60;;;;;;4986936;28;20455;-89
2022/07/24 12:20:28;;;;;;;5.47;5.07;;;35.30;38.40;;;;;;4998262;28;20510;-89
2022/07/24 12:22:57;;;;;;;5.77;5.27;;;36.00;38.00;;;;;;4981874;28;20467;-86
2022/07/24 12:25:24;;;;;;;6.27;5.80;;;36.30;37.30;;;;;;5002609;28;20436;-87
2022/07/24 12:28:05;;;;;;;5.50;5.17;;;35.50;38.30;;;;;;4985629;28;20443;-87
2022/07/24 12:30:38;;;;;;;6.30;5.80;;;36.00;38.30;;;;;;5002091;28;20450;-86
2022/07/24 12:33:26;;;;;;;5.30;4.87;;;35.30;38.30;;;;;;4995543;28;20514;-87
2022/07/24 12:36:15;;;;;;;5.73;5.33;;;35.10;39.00;;;;;;4979654;28;20444;-86
2022/07/24 12:38:56;;;;;;;5.73;5.33;;;35.50;38.50;;;;;;4984967;28;20447;-86
2022/07/24 12:41:29;;;;;;;6.37;5.73;;;36.00;37.80;;;;;;4985427;28;20463;-86
2022/07/24 12:44:12;;;;;;;6.60;6.20;;;36.50;37.10;;;;;;4986976;28;20432;-88
2022/07/24 12:46:45;;;;;;;7.50;5.03;;;36.10;37.10;;;;;;4993286;28;20495;-89
2022/07/24 12:49:18;;;;;;;5.83;5.30;;;35.30;38.00;;;;;;4985097;28;20459;-88
2022/07/24 12:51:53;;;;;;;5.70;5.30;;;35.60;38.40;;;;;;4979512;28;20448;-86
2022/07/24 12:54:24;;;;;;;5.90;5.40;;;35.50;38.80;;;;;;4981966;28;20451;-88
2022/07/24 13:00:03;;;;;;;6.17;5.70;;;36.50;37.10;;;;;;4984721;28;20498;-88
2022/07/24 13:03:01;;;;;;;5.67;5.27;;;36.30;37.10;;;;;;4982103;28;20463;-87
2022/07/24 13:05:42;;;;;;;6.47;5.77;;;36.10;37.20;;;;;;4976736;28;20482;-88
2022/07/24 13:08:20;;;;;;;5.83;5.30;;;35.90;37.50;;;;;;4977462;28;20452;-86
2022/07/24 13:10:48;;;;;;;5.93;5.47;;;35.30;38.30;;;;;;4980651;28;20507;-85
2022/07/24 13:13:18;;;;;;;5.50;5.10;;;35.60;38.20;;;;;;4977463;28;20488;-85
2022/07/24 13:15:46;;;;;;;5.63;5.23;;;35.60;38.50;;;;;;4995719;28;20455;-84
2022/07/24 13:18:20;;;;;;;5.07;4.57;;;35.80;38.30;;;;;;4983370;28;20444;-85
2022/07/24 13:20:56;;;;;;;5.13;4.83;;;36.30;36.90;;;;;;4994429;28;20479;-85
2022/07/24 13:23:37;;;;;;;5.00;4.50;;;36.20;36.90;;;;;;4989424;28;20528;-86
2022/07/24 13:26:09;;;;;;;5.33;4.93;;;35.80;37.10;;;;;;4969897;29;20452;-85
2022/07/24 13:28:36;;;;;;;4.70;4.40;;;35.80;37.00;;;;;;4964246;28;20452;-84
2022/07/24 13:31:06;;;;;;;4.83;4.53;;;36.60;35.70;;;;;;4965317;28;20518;-85
2022/07/24 13:33:33;;;;;;;5.10;4.80;;;36.00;36.60;;;;;;4986153;28;20609;-84
2022/07/24 13:36:00;;;;;;;6.03;4.77;;;36.10;36.30;;;;;;4983834;28;20458;-86
2022/07/24 13:38:27;;;;;;;7.17;5.07;;;35.90;36.50;;;;;;4978040;28;20542;-87
2022/07/24 13:40:55;;;;;;;4.90;4.60;;;36.20;36.20;;;;;;4976241;28;20599;-84
2022/07/24 13:43:22;;;;;;;4.87;4.57;;;35.90;36.70;;;;;;4971910;28;20462;-84
2022/07/24 13:45:51;;;;;;;5.80;5.30;;;35.60;36.60;;;;;;4976772;28;20468;-85
2022/07/24 13:48:18;;;;;;;5.03;4.53;;;35.20;36.90;;;;;;4996844;28;20487;-86
2022/07/24 13:50:46;;;;;;;5.07;4.67;;;35.00;37.20;;;;;;4968990;28;20491;-83
2022/07/24 13:53:13;;;;;;;4.83;4.50;;;34.80;37.40;;;;;;4985232;28;20459;-85
2022/07/24 13:55:40;;;;;;;4.70;4.40;;;34.60;37.50;;;;;;4965306;28;20498;-83
2022/07/24 13:58:07;;;;;;;5.20;3.93;;;34.70;37.60;;;;;;4967150;28;20450;-85
2022/07/24 14:00:34;;;;;;;5.30;4.90;;;34.70;37.70;;;;;;4970629;28;20553;-86
2022/07/24 14:03:01;;;;;;;4.63;4.33;;;34.70;37.60;;;;;;4961511;28;20496;-86